Maidenbower, United Kingdom
Current Conditions -  °F | °C
As of 8:50 PM on Tuesday 25 Nov 2014 (Local Time) from EGKK Reporting Station
Drizzle Drizzle  
Wind Chill: 43°   Ceiling: 700
Heat Index: 46°   Visibility: 3mi
Dew Point: 45°   Wind: 7mph
Humidity: 93%   Direction: 80°E
Pressure: 30"   Gusts: NA
Location:  51.11°N, 0.15°W
Report Text: EGKK 252050Z 08006KT 5000 -DZ BKN007 08/07 Q1016
Loading
Personal Weather Stations






























Interactive Weather Map New forecast layout! Learn more

10-Day Weather Forecast

Advertisements
Track Severe Weather on mobile